createdAt,value
2023-02-11T00:14:34.602Z,12.9
2023-02-11T00:30:08.940Z,13.3
2023-02-11T00:45:43.266Z,14.5
2023-02-11T01:01:17.761Z,12.8
2023-02-11T01:16:52.466Z,13.4
2023-02-11T01:32:27.054Z,13.5
2023-02-11T01:48:01.398Z,12.2
2023-02-11T02:03:35.811Z,11.8
2023-02-11T02:19:10.349Z,12
2023-02-11T02:34:44.675Z,12.7
2023-02-11T02:50:18.985Z,12.3
2023-02-11T03:05:53.573Z,13.5
2023-02-11T03:21:28.089Z,12.5
2023-02-11T03:37:02.444Z,13.3
2023-02-11T03:52:36.768Z,13.9
2023-02-11T04:08:11.108Z,12.6
2023-02-11T04:23:45.432Z,13.5
2023-02-11T04:39:19.788Z,13.7
2023-02-11T04:54:54.132Z,12.5
2023-02-11T05:10:28.490Z,13.2
2023-02-11T05:26:02.829Z,11.2
2023-02-11T05:41:36.912Z,11.4
2023-02-11T05:57:11.438Z,10.8
2023-02-11T06:12:45.805Z,11.1
2023-02-11T06:28:20.204Z,14
2023-02-11T06:43:54.892Z,12.7
2023-02-11T06:59:29.250Z,11.6
2023-02-11T07:15:03.594Z,13.6
2023-02-11T07:30:38.005Z,14.2
2023-02-11T07:46:12.352Z,14
2023-02-11T08:01:47.037Z,15.4
2023-02-11T08:17:21.569Z,14.8
2023-02-11T08:32:55.940Z,13
2023-02-11T08:48:30.321Z,10
2023-02-11T09:04:04.728Z,14.6
2023-02-11T09:19:39.181Z,14.3
2023-02-11T09:35:13.574Z,12.8
2023-02-11T09:50:48.023Z,12.4
2023-02-11T10:06:23.467Z,11.7
2023-02-11T10:21:57.860Z,11.9
2023-02-11T10:37:32.281Z,12.1
2023-02-11T10:53:06.711Z,12.3
2023-02-11T11:08:41.181Z,8.4
2023-02-11T11:24:15.953Z,8.6
2023-02-11T11:39:50.374Z,7.6
2023-02-11T11:55:24.777Z,7.5
2023-02-11T12:10:59.250Z,7.7
2023-02-11T12:26:33.724Z,8.6
2023-02-11T12:42:08.128Z,8
2023-02-11T12:57:42.559Z,8.2
2023-02-11T13:13:17.054Z,7.6
2023-02-11T13:28:51.300Z,7.1
2023-02-11T13:44:25.756Z,7.6
2023-02-11T14:00:00.171Z,8
2023-02-11T14:15:34.614Z,6.8
2023-02-11T14:31:09.323Z,8.1
2023-02-11T14:46:44.503Z,8
2023-02-11T15:02:19.081Z,8.2
2023-02-11T15:17:53.727Z,9.4
2023-02-11T15:33:28.215Z,7.8
2023-02-11T15:49:02.629Z,10.3
2023-02-11T16:04:37.077Z,11.9
2023-02-11T16:20:11.881Z,10.1
2023-02-11T16:35:46.282Z,9.6
2023-02-11T16:51:21.341Z,10.3
2023-02-11T17:06:58.204Z,9.2
2023-02-11T17:22:32.840Z,10.8
2023-02-11T17:38:07.228Z,8
2023-02-11T17:53:41.640Z,8.4
2023-02-11T18:09:16.040Z,7.1
2023-02-11T18:24:50.425Z,10.3
2023-02-11T18:40:24.819Z,7.1
2023-02-11T18:55:59.212Z,8.4
2023-02-11T19:11:33.594Z,7.6
2023-02-11T19:27:07.973Z,10.3
2023-02-11T19:42:42.344Z,9.2
2023-02-11T19:58:16.731Z,10.3
2023-02-11T20:13:51.111Z,9.8
2023-02-11T20:29:25.640Z,8.1
2023-02-11T20:45:00.079Z,9.3
2023-02-11T21:00:34.656Z,10.2
2023-02-11T21:16:09.278Z,8.6
2023-02-11T21:31:44.567Z,9.1
2023-02-11T21:47:19.488Z,9.8
2023-02-11T22:02:53.871Z,10.1
2023-02-11T22:18:28.228Z,9.4
2023-02-11T22:34:02.613Z,10
2023-02-11T22:49:37.016Z,10.6
2023-02-11T23:05:12.553Z,10.6
2023-02-11T23:20:46.950Z,11.8
2023-02-11T23:36:21.852Z,11.7
2023-02-11T23:51:56.240Z,11.3
